Time;durP1;ratioP1;P1;durP2;ratioP2;P2;SDS_P1;SDS_P2;PMS_P1;PMS_P2;Temp;Humidity;BMP_temperature;BMP_pressure;BME280_temperature;BME280_humidity;BME280_pressure;Samples;Min_cycle;Max_cycle;Signal;HPM_P1;HPM_P2
2021/06/12 00:00:30;;;;;;;7.05;6.35;;;21.70;58.90;;;22.02;48.67;97892.44;5028296;28;20061;-41
2021/06/12 00:03:00;;;;;;;7.72;7.00;;;21.70;59.00;;;22.00;49.02;97883.72;5028354;28;20065;-39
2021/06/12 00:05:28;;;;;;;7.43;6.78;;;21.60;59.30;;;21.97;49.11;97877.94;5027971;28;20371;-40
2021/06/12 00:07:56;;;;;;;7.78;7.07;;;21.60;59.40;;;21.95;49.29;97885.47;5027767;28;20057;-39
2021/06/12 00:10:31;;;;;;;7.97;7.05;;;21.60;59.50;;;21.90;49.33;97885.31;5028459;28;20071;-40
2021/06/12 00:12:59;;;;;;;7.45;6.75;;;21.50;59.60;;;21.88;49.19;97887.41;5028646;28;20057;-41
2021/06/12 00:15:31;;;;;;;9.15;8.25;;;21.50;59.50;;;21.86;49.24;97884.09;5012258;28;20376;-40
2021/06/12 00:17:59;;;;;;;8.30;7.50;;;21.50;59.50;;;21.82;49.54;97875.59;5027572;28;20063;-40
2021/06/12 00:20:32;;;;;;;8.50;7.53;;;21.50;59.60;;;21.79;49.32;97881.47;5027675;28;20053;-41
2021/06/12 00:23:00;;;;;;;7.65;6.88;;;21.40;60.00;;;21.70;49.91;97880.97;5028121;28;20072;-40
2021/06/12 00:25:30;;;;;;;8.57;7.68;;;21.20;60.30;;;21.68;49.77;97876.84;4994112;28;20059;-39
2021/06/12 00:27:59;;;;;;;7.50;6.80;;;21.30;60.50;;;21.68;50.06;97879.53;5028644;28;20344;-41
2021/06/12 00:30:30;;;;;;;7.30;6.70;;;21.20;60.50;;;21.66;49.88;97877.06;5028298;28;20053;-39
2021/06/12 00:32:58;;;;;;;8.52;7.13;;;21.20;60.60;;;21.65;50.22;97869.16;5009741;28;20457;-40
2021/06/12 00:35:27;;;;;;;8.40;7.68;;;21.30;61.00;;;21.61;50.12;97871.47;5027005;28;20062;-40
2021/06/12 00:37:56;;;;;;;8.30;7.50;;;21.20;61.10;;;21.57;50.33;97868.38;5010142;28;20063;-40
2021/06/12 00:40:24;;;;;;;10.48;8.60;;;21.20;61.20;;;21.53;50.25;97869.91;5027741;28;20054;-41
2021/06/12 00:42:52;;;;;;;7.97;7.28;;;21.10;61.10;;;21.51;50.47;97863.06;5028424;28;20107;-40
2021/06/12 00:45:24;;;;;;;7.80;7.07;;;21.20;61.10;;;21.50;50.63;97869.53;5010926;28;20064;-40
2021/06/12 00:47:54;;;;;;;7.15;6.45;;;21.20;61.20;;;21.49;50.63;97866.00;5029660;28;20060;-40
2021/06/12 00:50:28;;;;;;;7.88;7.20;;;21.20;61.20;;;21.49;50.39;97870.59;5026958;28;20050;-41
2021/06/12 00:52:56;;;;;;;7.55;6.82;;;21.10;61.20;;;21.47;50.30;97859.16;5027773;28;20057;-40
2021/06/12 00:55:24;;;;;;;7.57;6.63;;;21.10;61.20;;;21.44;50.54;97855.00;5026654;28;20244;-40
2021/06/12 00:57:53;;;;;;;7.55;6.65;;;21.10;61.10;;;21.41;50.86;97853.56;5010288;28;20393;-40
2021/06/12 01:00:21;;;;;;;8.57;6.82;;;21.10;61.30;;;21.40;50.42;97848.34;5011248;28;20052;-40
2021/06/12 01:02:50;;;;;;;8.60;7.80;;;21.10;61.10;;;21.39;50.63;97858.38;5026513;28;20059;-40
2021/06/12 01:05:22;;;;;;;7.50;6.60;;;21.00;60.70;;;21.36;49.92;97850.69;5026132;28;20049;-39
2021/06/12 01:07:50;;;;;;;7.28;6.55;;;21.00;60.80;;;21.32;50.13;97856.78;5027251;28;20055;-40
2021/06/12 01:10:19;;;;;;;8.52;6.53;;;20.90;60.90;;;21.30;50.69;97864.31;5026680;28;20063;-40
2021/06/12 01:13:24;;;;;;;7.57;6.70;;;20.90;61.00;;;21.29;50.47;97859.97;5028139;28;20106;-40
2021/06/12 01:16:26;;;;;;;7.13;6.53;;;21.00;61.40;;;21.27;50.67;97845.78;5011268;28;20062;-40
2021/06/12 01:18:57;;;;;;;7.63;6.53;;;20.90;61.60;;;21.26;50.79;97850.38;4983728;28;20065;-40
2021/06/12 01:21:40;;;;;;;7.35;6.50;;;20.90;61.50;;;21.24;50.79;97847.06;5027796;28;20281;-40
2021/06/12 01:24:40;;;;;;;8.00;7.37;;;20.90;62.10;;;21.24;50.93;97849.78;5028047;28;20057;-40
2021/06/12 01:27:21;;;;;;;8.00;6.60;;;20.90;62.10;;;21.21;50.79;97834.81;5011968;28;20075;-40
2021/06/12 01:30:04;;;;;;;8.30;7.60;;;20.90;62.40;;;21.21;50.99;97847.53;5009236;28;20057;-40
2021/06/12 01:32:37;;;;;;;11.02;7.82;;;20.90;63.10;;;21.14;51.52;97844.88;5027475;28;20049;-40
2021/06/12 01:35:14;;;;;;;9.15;7.90;;;20.70;62.60;;;21.10;51.69;97850.97;5026650;28;20063;-40
2021/06/12 01:37:46;;;;;;;9.27;8.27;;;20.70;63.40;;;21.07;51.82;97848.72;5027823;28;20061;-40
2021/06/12 01:40:16;;;;;;;9.10;8.20;;;20.70;63.50;;;21.03;52.36;97848.31;5026273;28;20065;-40
2021/06/12 01:42:47;;;;;;;11.00;9.98;;;20.70;64.00;;;20.99;52.58;97849.81;5025232;28;20053;-40
2021/06/12 01:45:16;;;;;;;11.68;10.50;;;20.60;64.70;;;20.96;52.65;97850.28;5024436;28;20046;-40
2021/06/12 01:47:46;;;;;;;11.43;10.32;;;20.60;64.90;;;20.93;53.29;97853.44;5026105;28;20115;-40
2021/06/12 01:50:17;;;;;;;11.35;10.25;;;20.50;65.50;;;20.89;53.11;97854.94;5009037;28;20041;-40
2021/06/12 01:52:46;;;;;;;11.73;10.73;;;20.50;65.70;;;20.84;53.28;97861.84;5009593;28;20053;-40
2021/06/12 01:55:19;;;;;;;11.70;10.65;;;20.40;65.90;;;20.77;53.49;97852.94;5009058;28;20041;-40
2021/06/12 01:57:48;;;;;;;12.32;10.85;;;20.30;66.50;;;20.71;53.81;97851.13;5010253;28;20045;-40
2021/06/12 02:00:17;;;;;;;11.85;10.65;;;20.30;66.70;;;20.68;53.62;97854.25;5008156;28;20089;-40
2021/06/12 02:02:47;;;;;;;11.00;10.00;;;20.20;66.80;;;20.62;54.31;97847.84;5027636;28;20067;-40
2021/06/12 02:05:23;;;;;;;12.73;11.45;;;20.20;67.20;;;20.59;53.97;97853.72;5024709;28;20049;-40
2021/06/12 02:07:53;;;;;;;13.23;12.02;;;20.20;68.10;;;20.55;54.35;97857.03;5024901;28;20057;-40
2021/06/12 02:10:25;;;;;;;12.77;11.48;;;20.10;67.50;;;20.48;54.48;97850.88;5025328;28;20365;-40
2021/06/12 02:12:55;;;;;;;11.25;10.15;;;20.00;67.90;;;20.45;54.64;97863.78;5023993;28;20064;-39
2021/06/12 02:15:27;;;;;;;12.77;11.23;;;20.00;67.90;;;20.43;54.43;97860.47;5008193;28;20057;-40
2021/06/12 02:18:07;;;;;;;11.40;10.20;;;19.90;68.00;;;20.41;54.95;97867.13;5025826;28;20059;-39
2021/06/12 02:20:38;;;;;;;13.30;10.55;;;20.00;68.20;;;20.38;54.42;97859.47;5010139;28;20061;-40
2021/06/12 02:23:09;;;;;;;13.30;10.93;;;19.90;68.30;;;20.33;54.83;97856.59;5009482;28;20067;-40
2021/06/12 02:25:39;;;;;;;11.05;9.95;;;19.80;68.50;;;20.29;54.83;97847.25;5026984;28;20295;-40
2021/06/12 02:28:12;;;;;;;11.93;10.73;;;19.80;68.60;;;20.26;55.23;97849.34;5023923;28;20362;-39
2021/06/12 02:31:06;;;;;;;10.93;9.85;;;19.80;69.10;;;20.25;55.21;97846.88;5025693;28;20057;-40
2021/06/12 02:33:37;;;;;;;11.27;10.23;;;19.80;69.10;;;20.23;55.22;97848.97;5011314;28;20334;-40
2021/06/12 02:36:05;;;;;;;12.02;10.25;;;19.80;69.00;;;20.22;55.08;97840.03;5026422;28;20061;-40
2021/06/12 02:38:33;;;;;;;12.05;10.70;;;19.80;68.70;;;20.21;55.50;97845.66;5009729;28;20280;-39
2021/06/12 02:41:01;;;;;;;11.20;9.80;;;19.80;68.90;;;20.18;55.29;97854.19;5025502;28;20052;-40
2021/06/12 02:43:29;;;;;;;11.27;10.27;;;19.80;68.90;;;20.14;55.56;97853.81;5024617;28;20050;-40
2021/06/12 02:45:57;;;;;;;11.43;10.27;;;19.70;69.00;;;20.13;55.42;97862.13;5007830;28;20049;-40
2021/06/12 02:48:30;;;;;;;11.40;10.18;;;19.70;69.00;;;20.10;55.52;97863.38;5024488;28;20064;-39
2021/06/12 02:51:00;;;;;;;10.35;9.30;;;19.70;69.20;;;20.08;55.77;97867.34;5007332;28;20057;-39
2021/06/12 02:53:36;;;;;;;10.48;9.50;;;19.60;68.90;;;20.05;55.62;97869.44;5006885;28;20057;-40
2021/06/12 02:56:06;;;;;;;10.27;9.30;;;19.60;68.90;;;20.03;55.53;97874.25;5009168;28;20057;-40
2021/06/12 02:58:36;;;;;;;9.55;8.68;;;19.60;68.70;;;19.99;55.57;97870.31;5010703;28;20057;-39
2021/06/12 03:01:04;;;;;;;9.43;8.63;;;19.50;68.90;;;19.98;55.51;97876.75;5008143;28;20057;-40
2021/06/12 03:03:34;;;;;;;8.77;7.90;;;19.50;68.80;;;19.97;55.48;97872.41;5025430;28;20048;-40
2021/06/12 03:06:03;;;;;;;10.07;7.90;;;19.50;68.80;;;19.95;55.62;97868.25;5007586;28;20051;-40
2021/06/12 03:08:44;;;;;;;9.13;8.43;;;19.50;68.60;;;19.94;55.71;97872.81;5008009;28;20369;-40
2021/06/12 03:11:14;;;;;;;9.55;8.52;;;19.50;69.10;;;19.90;55.49;97866.19;5007247;28;20041;-40
2021/06/12 03:13:44;;;;;;;8.80;7.90;;;19.40;68.30;;;19.91;55.20;97870.56;5008754;28;20053;-40
2021/06/12 03:16:17;;;;;;;8.52;7.65;;;19.50;68.20;;;19.90;55.49;97877.00;5007436;28;20358;-40
2021/06/12 03:18:47;;;;;;;8.65;7.80;;;19.50;68.20;;;19.92;55.43;97869.50;5005914;28;20060;-40
2021/06/12 03:21:17;;;;;;;9.15;8.25;;;19.50;67.90;;;19.93;55.64;97882.00;5008569;28;20060;-40
2021/06/12 03:23:46;;;;;;;8.98;8.07;;;19.50;68.30;;;19.91;55.79;97881.38;5024953;28;20049;-40
2021/06/12 03:26:16;;;;;;;8.85;8.07;;;19.50;68.40;;;19.91;55.91;97875.13;5025068;28;20072;-39
2021/06/12 03:28:44;;;;;;;8.23;7.45;;;19.50;68.70;;;19.89;55.60;97871.81;5008011;28;20355;-40
2021/06/12 03:31:13;;;;;;;9.20;8.38;;;19.50;68.70;;;19.86;55.91;97870.38;5007768;28;20080;-40
2021/06/12 03:33:41;;;;;;;8.70;7.90;;;19.50;68.90;;;19.84;55.98;97872.47;5023533;28;20057;-40
2021/06/12 03:36:10;;;;;;;8.77;7.55;;;19.40;68.60;;;19.83;55.74;97873.50;5006693;28;20232;-40
2021/06/12 03:38:38;;;;;;;8.43;7.50;;;19.40;68.70;;;19.80;55.75;97868.53;5005743;28;20363;-39
2021/06/12 03:41:07;;;;;;;9.15;8.35;;;19.40;68.70;;;19.77;55.72;97867.06;5008436;28;20266;-39
2021/06/12 03:43:36;;;;;;;8.25;7.50;;;19.40;68.70;;;19.77;55.77;97863.56;5006469;28;20343;-39
2021/06/12 03:46:05;;;;;;;8.55;7.75;;;19.40;68.50;;;19.77;55.53;97861.69;5025452;28;20068;-39
2021/06/12 03:48:35;;;;;;;7.63;6.75;;;19.40;68.20;;;19.79;55.67;97867.72;5006364;28;20045;-39
2021/06/12 03:51:04;;;;;;;8.25;7.45;;;19.40;68.00;;;19.78;55.42;97865.22;5025984;28;20246;-39
2021/06/12 03:53:43;;;;;;;8.70;7.85;;;19.40;68.00;;;19.78;55.51;97868.75;5024776;28;20068;-39
2021/06/12 03:56:14;;;;;;;8.10;7.22;;;19.50;67.80;;;19.78;55.48;97870.63;5008289;28;20051;-39
2021/06/12 03:58:45;;;;;;;8.40;7.65;;;19.40;67.70;;;19.79;55.35;97873.13;5026213;28;20072;-39
2021/06/12 04:01:15;;;;;;;8.02;7.15;;;19.50;67.70;;;19.80;55.43;97874.75;5025344;28;20053;-38
2021/06/12 04:03:44;;;;;;;7.88;7.18;;;19.50;67.60;;;19.82;55.49;97882.66;5024311;28;20455;-39
2021/06/12 04:06:12;;;;;;;8.40;7.60;;;19.50;67.50;;;19.87;55.35;97877.41;5024392;28;20057;-39
2021/06/12 04:08:41;;;;;;;8.60;7.80;;;19.60;67.30;;;19.89;55.48;97878.06;5023005;28;20057;-39
2021/06/12 04:11:09;;;;;;;7.28;6.65;;;19.60;67.20;;;19.88;55.34;97879.09;5024002;28;20076;-39
2021/06/12 04:13:37;;;;;;;13.20;6.97;;;19.60;67.30;;;19.91;55.24;97892.19;5023136;28;20343;-39
2021/06/12 04:16:07;;;;;;;7.85;7.05;;;19.70;67.20;;;19.94;55.01;97890.91;5025606;28;20057;-39
2021/06/12 04:18:36;;;;;;;8.23;7.38;;;19.70;66.90;;;19.97;55.21;97898.59;5024045;28;20041;-39
2021/06/12 04:21:05;;;;;;;7.85;7.15;;;19.70;66.80;;;19.98;55.26;97894.84;5025277;28;20344;-39
2021/06/12 04:23:33;;;;;;;7.93;7.13;;;19.70;67.00;;;20.01;55.34;97897.13;5006603;28;20348;-39
2021/06/12 04:26:01;;;;;;;11.70;7.97;;;19.70;67.20;;;20.02;55.61;97890.66;5024177;28;20058;-39
2021/06/12 04:28:29;;;;;;;8.20;7.15;;;19.70;67.20;;;20.04;55.53;97889.38;5024936;28;20063;-39
2021/06/12 04:30:57;;;;;;;11.50;8.23;;;19.80;67.10;;;20.03;55.36;97893.16;5046865;22;20044;-37
2021/06/12 04:33:25;;;;;;;8.35;7.55;;;19.80;67.40;;;20.04;55.58;97888.56;5047827;28;20057;-37
2021/06/12 04:35:53;;;;;;;8.10;7.03;;;19.70;67.70;;;20.04;55.59;97885.88;5046944;28;20242;-37
2021/06/12 04:38:21;;;;;;;8.90;8.10;;;19.70;67.70;;;20.04;55.99;97878.56;5048961;28;20052;-37
2021/06/12 04:40:48;;;;;;;7.70;7.00;;;19.80;67.90;;;20.04;55.94;97885.88;5048196;28;20053;-38
2021/06/12 04:43:16;;;;;;;8.35;7.60;;;19.80;67.80;;;20.03;55.89;97881.53;5047130;28;20045;-38
2021/06/12 04:45:44;;;;;;;9.15;6.97;;;19.70;68.00;;;20.04;56.38;97886.69;5047883;28;20061;-38
2021/06/12 04:48:13;;;;;;;8.13;7.43;;;19.70;68.30;;;20.05;56.23;97887.53;5047011;28;20481;-38
2021/06/12 04:50:41;;;;;;;8.35;7.55;;;19.80;68.10;;;20.08;56.13;97892.50;5048542;28;20372;-38
2021/06/12 04:53:11;;;;;;;7.70;7.00;;;19.80;68.00;;;20.12;56.07;97896.41;5046667;28;20055;-38
2021/06/12 04:55:39;;;;;;;8.88;8.02;;;19.90;68.00;;;20.16;55.99;97904.94;5047826;28;20049;-38
2021/06/12 04:58:10;;;;;;;7.85;7.05;;;20.00;67.80;;;20.19;56.44;97902.63;5049060;28;20208;-39
2021/06/12 05:00:39;;;;;;;8.32;7.57;;;20.00;67.90;;;20.22;56.50;97894.09;5047021;28;20298;-38
2021/06/12 05:03:13;;;;;;;8.68;7.00;;;20.10;68.30;;;20.27;56.85;97901.53;5046742;28;20254;-38
2021/06/12 05:05:40;;;;;;;8.07;7.30;;;20.20;68.40;;;20.33;56.92;97897.97;5047496;28;20053;-37
2021/06/12 05:08:08;;;;;;;7.78;6.95;;;20.30;68.50;;;20.38;57.05;97895.44;5048354;28;20067;-37
2021/06/12 05:10:36;;;;;;;8.65;7.93;;;20.30;68.50;;;20.43;56.78;97892.94;5047616;28;20358;-37
2021/06/12 05:13:04;;;;;;;8.48;6.55;;;20.40;68.40;;;20.49;56.44;97904.75;5046998;28;20041;-37
2021/06/12 05:15:32;;;;;;;7.72;7.07;;;20.40;67.80;;;20.54;56.45;97904.06;5046202;28;20053;-38
2021/06/12 05:18:04;;;;;;;7.57;6.88;;;20.50;67.40;;;20.59;56.14;97897.00;5045847;28;20040;-38
2021/06/12 05:20:35;;;;;;;7.32;6.63;;;20.60;67.30;;;20.64;55.81;97897.16;5049023;28;20202;-38
2021/06/12 05:23:05;;;;;;;7.72;7.03;;;20.70;67.00;;;20.68;56.13;97892.13;5046557;28;20218;-38
2021/06/12 05:25:35;;;;;;;8.05;7.40;;;20.70;66.70;;;20.75;55.87;97897.50;5046126;28;20063;-38
2021/06/12 05:28:04;;;;;;;8.10;7.18;;;20.70;66.70;;;20.80;55.55;97892.25;5045960;28;20060;-38
2021/06/12 05:30:34;;;;;;;7.65;6.95;;;20.80;66.50;;;20.84;55.67;97893.50;5027810;28;20404;-38
2021/06/12 05:33:02;;;;;;;9.82;7.28;;;20.80;66.50;;;20.87;55.26;97892.22;5046047;28;20226;-38
2021/06/12 05:35:30;;;;;;;8.45;7.63;;;20.90;66.00;;;20.91;54.88;97888.81;5046592;28;20077;-38
2021/06/12 05:38:01;;;;;;;7.57;6.95;;;20.90;65.70;;;20.93;55.13;97886.72;5045690;28;20049;-37
2021/06/12 05:40:30;;;;;;;8.20;7.40;;;21.00;65.50;;;20.95;55.25;97892.75;5047666;28;20053;-37
2021/06/12 05:42:58;;;;;;;7.40;6.70;;;21.00;65.60;;;20.96;54.94;97891.72;5044907;28;20242;-37
2021/06/12 05:45:27;;;;;;;7.78;7.05;;;20.90;65.50;;;20.99;54.80;97893.13;5027988;28;20053;-37
2021/06/12 05:47:55;;;;;;;8.70;6.78;;;21.00;65.30;;;21.00;54.89;97905.63;5044435;28;20055;-38
2021/06/12 05:50:23;;;;;;;7.18;6.57;;;21.00;65.20;;;21.02;54.77;97898.13;5046167;28;20051;-39
2021/06/12 05:52:51;;;;;;;7.07;6.28;;;21.00;65.40;;;21.03;54.92;97900.59;5046700;28;20055;-38
2021/06/12 05:55:19;;;;;;;6.55;5.95;;;21.10;65.10;;;21.08;54.60;97897.22;5029190;28;20065;-38
2021/06/12 05:57:47;;;;;;;7.22;6.53;;;21.10;65.00;;;21.12;54.86;97901.13;5047869;28;20051;-38
2021/06/12 06:00:16;;;;;;;8.10;7.40;;;21.20;64.90;;;21.13;54.49;97902.81;5046448;28;20092;-38
2021/06/12 06:02:45;;;;;;;7.07;6.38;;;21.20;64.80;;;21.16;54.52;97901.53;5045011;28;20061;-38
2021/06/12 06:05:13;;;;;;;7.53;6.82;;;21.20;64.80;;;21.18;54.85;97894.00;5045726;28;20057;-38
2021/06/12 06:07:41;;;;;;;7.43;6.63;;;21.30;64.80;;;21.22;54.93;97895.19;5046069;28;20051;-37
2021/06/12 06:10:10;;;;;;;6.72;6.10;;;21.30;64.90;;;21.27;54.96;97900.78;5028449;28;20045;-38
2021/06/12 06:12:38;;;;;;;9.90;7.40;;;21.40;65.00;;;21.32;54.59;97908.22;5045256;28;20294;-37
2021/06/12 06:15:10;;;;;;;7.68;6.57;;;21.40;64.80;;;21.32;54.77;97895.50;5026703;28;20227;-37
2021/06/12 06:17:41;;;;;;;7.03;6.38;;;21.40;65.00;;;21.30;54.65;97894.09;5044735;28;20053;-37
2021/06/12 06:20:13;;;;;;;8.60;6.78;;;21.40;66.00;;;21.32;54.86;97900.09;5027465;28;20052;-37
2021/06/12 06:22:42;;;;;;;7.35;6.60;;;21.40;65.30;;;21.34;54.91;97898.00;5044841;28;20115;-38
2021/06/12 06:25:11;;;;;;;7.15;6.53;;;21.40;65.00;;;21.35;54.82;97894.25;5045583;28;20728;-38
2021/06/12 06:27:39;;;;;;;7.00;6.40;;;21.40;64.80;;;21.34;54.98;97893.41;5045273;28;20053;-38
2021/06/12 06:30:08;;;;;;;7.88;6.22;;;21.40;64.70;;;21.38;54.80;97896.50;5046082;28;20342;-38
2021/06/12 06:32:36;;;;;;;6.75;6.00;;;21.50;64.70;;;21.43;54.29;97899.38;5045625;28;20051;-38
2021/06/12 06:35:05;;;;;;;7.32;6.28;;;21.50;63.90;;;21.40;54.07;97889.81;5044663;28;20048;-38
2021/06/12 06:37:33;;;;;;;8.07;7.38;;;21.40;63.70;;;21.44;54.07;97892.91;5044830;28;20067;-38
2021/06/12 06:40:02;;;;;;;7.07;6.40;;;21.50;64.80;;;21.50;54.30;97893.91;5043864;28;20063;-38
2021/06/12 06:42:32;;;;;;;7.53;6.45;;;21.60;64.10;;;21.54;54.33;97905.94;5027581;28;20279;-38
2021/06/12 06:45:00;;;;;;;8.18;6.25;;;21.70;64.40;;;21.57;53.98;97903.59;5044857;28;20284;-38
2021/06/12 06:47:28;;;;;;;7.03;5.97;;;21.70;64.10;;;21.61;54.14;97893.97;5044674;28;20059;-39
2021/06/12 06:49:56;;;;;;;6.65;6.07;;;21.70;64.50;;;21.66;54.04;97895.19;5044836;28;20053;-39
2021/06/12 06:52:24;;;;;;;8.23;5.95;;;21.70;64.10;;;21.69;54.28;97903.69;5044276;28;20049;-39
2021/06/12 06:54:52;;;;;;;7.35;5.68;;;21.80;64.40;;;21.74;54.71;97898.41;5045811;28;20068;-40
2021/06/12 06:57:20;;;;;;;6.75;6.18;;;21.90;64.40;;;21.80;54.17;97904.81;5045624;28;20364;-39
2021/06/12 06:59:48;;;;;;;8.30;6.57;;;22.00;64.20;;;21.85;54.72;97901.41;5026227;28;20266;-39
2021/06/12 07:02:16;;;;;;;9.77;6.90;;;22.00;64.50;;;21.90;54.30;97899.69;5043922;28;20065;-39
2021/06/12 07:04:44;;;;;;;7.65;6.72;;;22.10;64.30;;;21.94;54.10;97909.00;5046296;28;20354;-39
2021/06/12 07:07:12;;;;;;;7.22;6.60;;;22.20;64.10;;;21.99;54.23;97903.72;5045361;28;20257;-39
2021/06/12 07:09:39;;;;;;;6.30;5.80;;;22.20;64.10;;;22.04;54.45;97903.03;5045419;28;20079;-39
2021/06/12 07:12:10;;;;;;;6.55;6.00;;;22.20;64.40;;;22.09;54.56;97905.09;5045822;28;20567;-39
2021/06/12 07:14:41;;;;;;;7.95;7.18;;;22.30;64.50;;;22.09;55.12;97914.03;5044906;28;20060;-39
2021/06/12 07:17:09;;;;;;;7.50;6.80;;;22.40;64.70;;;22.17;55.25;97911.00;5047053;28;20061;-39
2021/06/12 07:19:37;;;;;;;8.85;7.18;;;22.40;65.00;;;22.22;54.90;97902.19;5046471;28;20378;-39
2021/06/12 07:22:05;;;;;;;7.68;6.88;;;22.40;64.90;;;22.26;55.47;97916.97;5056083;28;20131;-39
2021/06/12 07:24:34;;;;;;;7.43;6.70;;;22.50;66.50;;;22.32;55.90;97924.19;5047260;28;20051;-39
2021/06/12 07:27:02;;;;;;;7.93;7.15;;;22.50;66.40;;;22.31;56.18;97927.13;5046023;28;20057;-39
2021/06/12 07:29:30;;;;;;;8.23;7.40;;;22.50;67.00;;;22.33;56.29;97925.84;5045105;28;20049;-39
2021/06/12 07:31:59;;;;;;;9.23;8.43;;;22.50;67.10;;;22.39;57.24;97919.50;5027213;28;20063;-39
2021/06/12 07:34:27;;;;;;;10.27;9.32;;;22.60;68.20;;;22.38;57.95;97928.69;5043614;28;20055;-39
2021/06/12 07:36:55;;;;;;;10.60;9.57;;;22.60;69.00;;;22.44;58.14;97929.66;5046355;28;20052;-38
2021/06/12 07:39:26;;;;;;;10.00;8.48;;;22.60;69.10;;;22.48;57.60;97932.72;5028645;28;20048;-38
2021/06/12 07:41:55;;;;;;;10.07;9.07;;;22.60;69.20;;;22.45;57.92;97934.03;5044207;28;20083;-38
2021/06/12 07:44:23;;;;;;;9.13;8.32;;;22.60;69.40;;;22.44;57.70;97945.09;5026040;28;20071;-38
2021/06/12 07:46:51;;;;;;;10.13;8.95;;;22.50;69.70;;;22.32;57.90;97939.63;5042633;28;20053;-38
2021/06/12 07:49:18;;;;;;;8.63;7.82;;;22.40;69.80;;;22.30;57.63;97939.03;5044400;28;20061;-38
2021/06/12 07:51:46;;;;;;;9.32;8.43;;;22.30;69.70;;;22.33;57.84;97938.56;5044114;28;20334;-38
2021/06/12 07:54:14;;;;;;;8.80;7.18;;;22.40;69.30;;;22.34;57.77;97941.06;5044442;28;20246;-38
2021/06/12 07:56:42;;;;;;;9.05;8.10;;;22.40;69.50;;;22.36;57.96;97932.69;5045045;28;20250;-39
2021/06/12 07:59:10;;;;;;;11.38;8.00;;;22.40;69.60;;;22.29;57.51;97930.06;5044608;28;20061;-38
2021/06/12 08:01:38;;;;;;;8.68;7.55;;;22.40;68.90;;;22.35;57.22;97933.75;5052228;28;20052;-38
2021/06/12 08:04:06;;;;;;;9.85;8.85;;;22.40;68.80;;;22.35;57.63;97931.88;5053788;28;20547;-38
2021/06/12 08:06:34;;;;;;;9.13;8.27;;;22.50;69.10;;;22.41;57.44;97939.09;5058213;28;20060;-38
2021/06/12 08:09:03;;;;;;;8.45;6.90;;;22.50;69.00;;;22.45;57.83;97939.47;5057215;28;20068;-38
2021/06/12 08:11:31;;;;;;;8.30;7.53;;;22.60;69.20;;;22.46;57.81;97937.56;5058849;28;20350;-39
2021/06/12 08:14:00;;;;;;;7.80;7.10;;;22.60;69.20;;;22.50;57.91;97939.56;5058105;28;20262;-38
2021/06/12 08:16:28;;;;;;;8.73;6.63;;;22.70;69.30;;;22.46;58.46;97934.84;5038948;28;20376;-38
2021/06/12 08:18:56;;;;;;;7.15;6.40;;;22.70;69.80;;;22.58;58.34;97935.72;5056399;28;20080;-38
2021/06/12 08:21:24;;;;;;;8.18;6.82;;;22.80;69.20;;;22.69;58.66;97937.63;5057794;28;20059;-38
2021/06/12 08:23:52;;;;;;;6.60;5.78;;;23.00;69.50;;;22.74;58.12;97939.63;5047416;28;20227;-38
2021/06/12 08:26:20;;;;;;;6.35;5.25;;;23.20;68.30;;;22.75;57.77;97944.84;5047756;28;20049;-38
2021/06/12 08:28:50;;;;;;;5.05;4.53;;;23.20;68.00;;;22.81;57.90;97938.47;5047757;28;20049;-38
2021/06/12 08:31:18;;;;;;;4.97;4.47;;;23.20;68.10;;;22.94;57.04;97942.88;5047631;28;20053;-38
2021/06/12 08:33:46;;;;;;;5.43;3.92;;;23.30;67.40;;;22.97;56.95;97952.44;5048065;28;20707;-38
2021/06/12 08:36:14;;;;;;;4.50;3.65;;;23.40;66.60;;;22.99;56.60;97951.16;5048356;28;20052;-38
2021/06/12 08:38:42;;;;;;;7.05;4.55;;;23.50;66.00;;;23.03;57.09;97942.56;5047475;28;20056;-38
2021/06/12 08:41:10;;;;;;;4.20;3.80;;;23.50;66.90;;;23.18;57.15;97948.34;5046975;28;20262;-38
2021/06/12 08:43:38;;;;;;;4.60;4.00;;;23.60;67.00;;;23.19;57.34;97944.59;5048412;28;20071;-38
2021/06/12 08:46:26;;;;;;;5.50;4.05;;;23.70;67.20;;;23.21;57.13;97952.50;5033302;28;20047;-39
2021/06/12 08:48:56;;;;;;;5.05;4.30;;;23.60;67.10;;;23.28;56.90;97947.78;5046949;28;20223;-38
2021/06/12 08:51:24;;;;;;;5.70;3.83;;;23.60;67.00;;;23.26;57.29;97948.00;5047188;28;20503;-38
2021/06/12 08:53:52;;;;;;;4.50;3.88;;;23.60;67.50;;;23.28;57.35;97950.50;5046531;28;20055;-38
2021/06/12 08:56:20;;;;;;;5.35;4.85;;;23.60;67.90;;;23.32;56.46;97944.38;5047484;28;20350;-38
2021/06/12 08:58:48;;;;;;;4.32;3.85;;;23.60;66.90;;;23.34;56.54;97944.97;5048801;28;20362;-38
2021/06/12 09:01:21;;;;;;;4.00;3.60;;;23.60;66.80;;;23.31;55.78;97950.03;5046619;28;20067;-38
2021/06/12 09:03:50;;;;;;;5.45;4.10;;;23.70;65.30;;;23.30;55.28;97946.50;5048802;28;20412;-38
2021/06/12 09:06:20;;;;;;;4.57;4.13;;;23.70;64.80;;;23.29;55.56;97946.72;5046536;28;20263;-38
2021/06/12 09:08:49;;;;;;;4.60;4.18;;;23.70;64.90;;;23.39;55.24;97952.38;5045586;28;20045;-38
2021/06/12 09:11:19;;;;;;;5.93;4.35;;;23.80;64.40;;;23.40;55.54;97945.91;5045710;28;20049;-38
2021/06/12 09:13:57;;;;;;;7.20;4.00;;;23.80;64.80;;;23.35;54.41;97954.75;5046842;28;20208;-38
2021/06/12 09:16:40;;;;;;;4.47;4.03;;;23.80;63.00;;;23.49;55.18;97958.03;5047235;28;20055;-38
2021/06/12 09:19:14;;;;;;;6.97;4.55;;;23.90;64.60;;;23.57;55.73;97959.56;5047221;28;20493;-38
2021/06/12 09:21:51;;;;;;;6.28;4.85;;;24.00;65.20;;;23.47;54.67;97968.31;5047637;28;20059;-38
2021/06/12 09:24:35;;;;;;;5.72;5.07;;;23.90;64.40;;;23.55;55.15;97957.13;5045856;28;20212;-38
2021/06/12 09:27:13;;;;;;;5.68;4.47;;;23.90;65.10;;;23.54;54.01;97968.22;5046077;28;20067;-38
2021/06/12 09:29:43;;;;;;;5.32;4.35;;;23.90;62.80;;;23.63;54.43;97955.91;5029713;28;20288;-38
2021/06/12 09:32:25;;;;;;;6.95;5.05;;;24.00;64.10;;;23.63;54.97;97955.09;5047451;28;20067;-38
2021/06/12 09:35:07;;;;;;;5.95;4.65;;;24.00;64.60;;;23.68;54.26;97958.75;5046852;28;20051;-38
2021/06/12 09:37:36;;;;;;;6.13;5.53;;;24.10;64.00;;;23.71;53.70;97950.13;5047014;28;20053;-38
2021/06/12 09:40:16;;;;;;;6.18;5.18;;;24.10;62.80;;;23.71;53.86;97946.56;5045486;28;20062;-37
2021/06/12 09:42:47;;;;;;;6.45;5.72;;;24.10;62.80;;;23.79;53.99;97948.97;5045911;28;20067;-38
2021/06/12 09:45:27;;;;;;;7.30;4.77;;;24.10;63.80;;;23.83;53.58;97933.00;5046726;28;20063;-38
2021/06/12 09:48:15;;;;;;;6.70;4.35;;;24.10;62.90;;;23.80;53.14;97939.72;5045974;28;20246;-38
2021/06/12 09:50:46;;;;;;;4.90;4.38;;;24.10;62.30;;;23.85;53.91;97936.31;5046314;28;20195;-37
2021/06/12 09:53:22;;;;;;;4.50;3.50;;;24.20;63.30;;;23.85;52.72;97923.53;5047004;28;20087;-38
2021/06/12 09:55:50;;;;;;;8.20;4.57;;;24.20;61.20;;;23.89;52.24;97919.28;5046724;28;20239;-38
2021/06/12 09:58:18;;;;;;;5.93;4.50;;;24.20;60.90;;;23.97;52.24;97926.22;5046616;28;20064;-37
2021/06/12 10:00:47;;;;;;;5.13;4.25;;;24.30;61.20;;;24.01;52.83;97923.84;5046001;28;20471;-38
2021/06/12 10:03:32;;;;;;;5.18;4.22;;;24.40;61.90;;;24.06;52.24;97913.06;5046393;28;20045;-38
2021/06/12 10:06:25;;;;;;;5.50;4.85;;;24.50;61.30;;;24.10;51.86;97920.50;5045111;28;20053;-38
2021/06/12 10:08:53;;;;;;;4.07;3.67;;;24.60;60.20;;;24.05;48.78;97920.41;5028668;28;20033;-38
2021/06/12 10:11:26;;;;;;;4.10;3.03;;;24.60;56.00;;;24.15;49.41;97930.66;5029138;28;20053;-38
2021/06/12 10:13:54;;;;;;;;;;;24.70;57.20;;;24.07;49.44;97922.88;5047560;28;20057;-38
2021/06/12 10:16:24;;;;;;;5.63;3.65;;;24.60;57.30;;;24.24;50.21;97925.66;5027621;28;20214;-38
2021/06/12 10:18:54;;;;;;;4.95;3.60;;;24.70;58.70;;;24.23;49.74;97937.59;5045306;28;20235;-38
2021/06/12 10:21:23;;;;;;;3.83;3.17;;;24.60;57.70;;;24.23;49.75;97932.16;5046084;28;20056;-38
2021/06/12 10:23:52;;;;;;;4.25;3.53;;;24.60;57.80;;;24.20;50.95;97938.94;5045970;28;20041;-38
2021/06/12 10:26:21;;;;;;;4.72;4.10;;;24.60;59.40;;;24.26;50.79;97937.13;5045376;28;20411;-38
2021/06/12 10:28:50;;;;;;;4.72;3.88;;;24.60;59.80;;;24.23;50.05;97934.88;5028473;28;20059;-39
2021/06/12 10:31:22;;;;;;;7.13;4.72;;;24.70;58.20;;;24.36;50.86;97934.59;5046301;28;20052;-37